Lufkin, Texas
Current Conditions -  °F | °C
As of 9:53 PM on Friday 19 Dec 2014 (Local Time) from KLFK Reporting Station
Haze Haze  
Wind Chill: 51°   Ceiling: 600
Heat Index: 51°   Visibility: 6mi
Dew Point: 47°   Wind: 8mph
Humidity: 86%   Direction: 40°NE
Pressure: 30.15"   Gusts: NA
Location:  31.34°N, 94.72°W
Report Text: KLFK 200353Z AUTO 04007KT 6SM BR OVC006 11/08 A3015 RMK AO2 SLP210 T01060083
Loading
Personal Weather Stations






























Interactive Weather Map New forecast layout! Learn more

10-Day Weather Forecast

Advertisements
Track Severe Weather on mobile